Terminal Aerodrome Forecast
Issued by NWS

Home | Current Version | Previous Version | Text Only | Print | Product List | Glossary On
Versions: 1 2 3 4 5 6 7 8 9 10 11 12
000
FTPQ31 PGUM 222325
TAFGUM
TAF

TAF
PGSN 222325Z 2300/2324 06014G24KT P6SM VCSH FEW025 SCT050
     FM231000 06013KT P6SM VCSH FEW025 SCT050=

USA.gov is the U.S. government's official web portal to all federal, state and local government web resources and services.